sensor_id;sensor_type;location;lat;lon;timestamp;temperature;humidity
10263;DHT22;5177;50.068;8.156;2022-08-20T00:02:09;23.60;99.90
10263;DHT22;5177;50.068;8.156;2022-08-20T00:04:35;23.60;99.90
10263;DHT22;5177;50.068;8.156;2022-08-20T00:07:00;23.50;99.90
10263;DHT22;5177;50.068;8.156;2022-08-20T00:09:26;23.50;99.90
10263;DHT22;5177;50.068;8.156;2022-08-20T00:11:51;23.40;99.90
10263;DHT22;5177;50.068;8.156;2022-08-20T00:14:17;23.50;99.90
10263;DHT22;5177;50.068;8.156;2022-08-20T00:16:43;23.40;99.90
10263;DHT22;5177;50.068;8.156;2022-08-20T00:19:08;23.40;99.90
10263;DHT22;5177;50.068;8.156;2022-08-20T00:21:34;23.40;99.90
10263;DHT22;5177;50.068;8.156;2022-08-20T00:24:00;23.40;99.90
10263;DHT22;5177;50.068;8.156;2022-08-20T00:26:26;23.30;1.00
10263;DHT22;5177;50.068;8.156;2022-08-20T00:31:54;23.20;1.00
10263;DHT22;5177;50.068;8.156;2022-08-20T00:34:20;23.20;1.00
10263;DHT22;5177;50.068;8.156;2022-08-20T00:36:46;23.20;1.00
10263;DHT22;5177;50.068;8.156;2022-08-20T00:39:12;23.10;1.00
10263;DHT22;5177;50.068;8.156;2022-08-20T00:41:37;23.10;1.00
10263;DHT22;5177;50.068;8.156;2022-08-20T00:44:08;23.10;1.00
10263;DHT22;5177;50.068;8.156;2022-08-20T00:46:34;23.10;1.00
10263;DHT22;5177;50.068;8.156;2022-08-20T00:49:00;23.10;1.00
10263;DHT22;5177;50.068;8.156;2022-08-20T00:51:35;23.10;1.00
10263;DHT22;5177;50.068;8.156;2022-08-20T00:54:05;23.10;1.00
10263;DHT22;5177;50.068;8.156;2022-08-20T00:56:31;23.10;1.00
10263;DHT22;5177;50.068;8.156;2022-08-20T00:58:58;23.10;1.00
10263;DHT22;5177;50.068;8.156;2022-08-20T01:01:24;23.00;1.00
10263;DHT22;5177;50.068;8.156;2022-08-20T01:03:49;22.90;1.00
10263;DHT22;5177;50.068;8.156;2022-08-20T01:06:15;23.00;1.00
10263;DHT22;5177;50.068;8.156;2022-08-20T01:08:42;23.00;1.00
10263;DHT22;5177;50.068;8.156;2022-08-20T01:11:07;22.90;1.00
10263;DHT22;5177;50.068;8.156;2022-08-20T01:13:45;22.90;1.00
10263;DHT22;5177;50.068;8.156;2022-08-20T01:16:21;22.90;1.00
10263;DHT22;5177;50.068;8.156;2022-08-20T01:18:48;22.90;1.00
10263;DHT22;5177;50.068;8.156;2022-08-20T01:21:16;22.90;1.00
10263;DHT22;5177;50.068;8.156;2022-08-20T01:28:52;22.90;1.00
10263;DHT22;5177;50.068;8.156;2022-08-20T01:31:20;22.90;1.00
10263;DHT22;5177;50.068;8.156;2022-08-20T01:33:45;22.90;1.00
10263;DHT22;5177;50.068;8.156;2022-08-20T01:36:12;22.80;1.00
10263;DHT22;5177;50.068;8.156;2022-08-20T01:38:38;22.80;1.00
10263;DHT22;5177;50.068;8.156;2022-08-20T01:43:39;22.80;1.00
10263;DHT22;5177;50.068;8.156;2022-08-20T01:46:08;22.80;1.00
10263;DHT22;5177;50.068;8.156;2022-08-20T01:48:35;22.80;1.00
10263;DHT22;5177;50.068;8.156;2022-08-20T01:51:04;22.80;1.00
10263;DHT22;5177;50.068;8.156;2022-08-20T01:53:32;22.80;1.00
10263;DHT22;5177;50.068;8.156;2022-08-20T01:55:58;22.80;1.00
10263;DHT22;5177;50.068;8.156;2022-08-20T01:58:24;22.80;1.00
10263;DHT22;5177;50.068;8.156;2022-08-20T02:00:51;22.70;1.00
10263;DHT22;5177;50.068;8.156;2022-08-20T02:03:17;22.70;1.00
10263;DHT22;5177;50.068;8.156;2022-08-20T02:05:43;22.70;1.00
10263;DHT22;5177;50.068;8.156;2022-08-20T02:08:09;22.60;1.00
10263;DHT22;5177;50.068;8.156;2022-08-20T02:10:34;22.70;1.00
10263;DHT22;5177;50.068;8.156;2022-08-20T02:13:09;22.60;1.00
10263;DHT22;5177;50.068;8.156;2022-08-20T02:15:35;22.60;1.00
10263;DHT22;5177;50.068;8.156;2022-08-20T02:18:08;22.60;1.00
10263;DHT22;5177;50.068;8.156;2022-08-20T02:20:35;22.70;1.00
10263;DHT22;5177;50.068;8.156;2022-08-20T02:23:01;22.60;1.00
10263;DHT22;5177;50.068;8.156;2022-08-20T02:25:28;22.60;1.00
10263;DHT22;5177;50.068;8.156;2022-08-20T02:27:55;22.50;1.00
10263;DHT22;5177;50.068;8.156;2022-08-20T02:30:25;22.50;1.00
10263;DHT22;5177;50.068;8.156;2022-08-20T02:32:51;22.50;1.00
10263;DHT22;5177;50.068;8.156;2022-08-20T02:35:17;22.50;1.00
10263;DHT22;5177;50.068;8.156;2022-08-20T02:37:43;22.60;1.00
10263;DHT22;5177;50.068;8.156;2022-08-20T02:40:11;22.60;1.00
10263;DHT22;5177;50.068;8.156;2022-08-20T02:42:37;22.60;1.00
10263;DHT22;5177;50.068;8.156;2022-08-20T02:45:08;22.50;1.00
10263;DHT22;5177;50.068;8.156;2022-08-20T02:47:36;22.50;1.00
10263;DHT22;5177;50.068;8.156;2022-08-20T02:50:03;22.50;1.00
10263;DHT22;5177;50.068;8.156;2022-08-20T02:52:29;22.50;1.00
10263;DHT22;5177;50.068;8.156;2022-08-20T02:54:55;22.50;1.00
10263;DHT22;5177;50.068;8.156;2022-08-20T02:57:20;22.50;1.00
10263;DHT22;5177;50.068;8.156;2022-08-20T02:59:46;22.50;1.00
10263;DHT22;5177;50.068;8.156;2022-08-20T03:02:12;22.50;1.00
10263;DHT22;5177;50.068;8.156;2022-08-20T03:04:38;22.60;1.00
10263;DHT22;5177;50.068;8.156;2022-08-20T03:07:04;22.60;1.00
10263;DHT22;5177;50.068;8.156;2022-08-20T03:09:30;22.60;1.00
10263;DHT22;5177;50.068;8.156;2022-08-20T03:11:55;22.60;1.00
10263;DHT22;5177;50.068;8.156;2022-08-20T03:14:21;22.60;1.00
10263;DHT22;5177;50.068;8.156;2022-08-20T03:16:46;22.60;1.00
10263;DHT22;5177;50.068;8.156;2022-08-20T03:19:11;22.60;1.00
10263;DHT22;5177;50.068;8.156;2022-08-20T03:21:38;22.60;1.00
10263;DHT22;5177;50.068;8.156;2022-08-20T03:24:03;22.60;1.00
10263;DHT22;5177;50.068;8.156;2022-08-20T03:26:29;22.50;1.00
10263;DHT22;5177;50.068;8.156;2022-08-20T03:28:54;22.60;1.00
10263;DHT22;5177;50.068;8.156;2022-08-20T03:31:20;22.60;1.00
10263;DHT22;5177;50.068;8.156;2022-08-20T03:33:45;22.60;1.00
10263;DHT22;5177;50.068;8.156;2022-08-20T03:36:11;22.50;1.00
10263;DHT22;5177;50.068;8.156;2022-08-20T03:38:36;22.50;1.00
10263;DHT22;5177;50.068;8.156;2022-08-20T03:41:02;22.50;1.00
10263;DHT22;5177;50.068;8.156;2022-08-20T03:43:28;22.40;1.00
10263;DHT22;5177;50.068;8.156;2022-08-20T03:45:53;22.40;1.00
10263;DHT22;5177;50.068;8.156;2022-08-20T03:48:19;22.40;1.00
10263;DHT22;5177;50.068;8.156;2022-08-20T03:50:45;22.40;1.00
10263;DHT22;5177;50.068;8.156;2022-08-20T03:53:12;22.40;1.00
10263;DHT22;5177;50.068;8.156;2022-08-20T03:55:38;22.40;1.00
10263;DHT22;5177;50.068;8.156;2022-08-20T03:58:05;22.40;1.00
10263;DHT22;5177;50.068;8.156;2022-08-20T04:01:05;22.40;1.00
10263;DHT22;5177;50.068;8.156;2022-08-20T04:03:23;22.40;1.00
10263;DHT22;5177;50.068;8.156;2022-08-20T04:05:49;22.40;1.00
10263;DHT22;5177;50.068;8.156;2022-08-20T04:08:16;22.30;1.00
10263;DHT22;5177;50.068;8.156;2022-08-20T04:10:43;22.40;1.00
10263;DHT22;5177;50.068;8.156;2022-08-20T04:13:08;22.40;1.00
10263;DHT22;5177;50.068;8.156;2022-08-20T04:15:34;22.40;1.00
10263;DHT22;5177;50.068;8.156;2022-08-20T04:18:00;22.30;1.00
10263;DHT22;5177;50.068;8.156;2022-08-20T04:20:28;22.30;1.00
10263;DHT22;5177;50.068;8.156;2022-08-20T04:22:54;22.30;1.00
10263;DHT22;5177;50.068;8.156;2022-08-20T04:25:20;22.30;1.00
10263;DHT22;5177;50.068;8.156;2022-08-20T04:27:46;22.30;9.20
10263;DHT22;5177;50.068;8.156;2022-08-20T04:30:15;22.20;11.80
10263;DHT22;5177;50.068;8.156;2022-08-20T04:32:41;22.20;14.80
10263;DHT22;5177;50.068;8.156;2022-08-20T04:35:07;22.20;17.90
10263;DHT22;5177;50.068;8.156;2022-08-20T04:37:33;22.20;16.00
10263;DHT22;5177;50.068;8.156;2022-08-20T04:40:03;22.30;10.30
10263;DHT22;5177;50.068;8.156;2022-08-20T04:42:47;22.30;4.70
10263;DHT22;5177;50.068;8.156;2022-08-20T04:45:12;22.30;11.10
10263;DHT22;5177;50.068;8.156;2022-08-20T04:47:56;22.30;11.10
10263;DHT22;5177;50.068;8.156;2022-08-20T04:50:22;22.20;10.00
10263;DHT22;5177;50.068;8.156;2022-08-20T04:52:47;22.20;17.40
10263;DHT22;5177;50.068;8.156;2022-08-20T04:55:13;22.20;18.80
10263;DHT22;5177;50.068;8.156;2022-08-20T04:57:41;22.30;13.30
10263;DHT22;5177;50.068;8.156;2022-08-20T05:00:08;22.20;21.10
10263;DHT22;5177;50.068;8.156;2022-08-20T05:02:35;22.20;25.60
10263;DHT22;5177;50.068;8.156;2022-08-20T05:05:00;22.20;35.20
10263;DHT22;5177;50.068;8.156;2022-08-20T05:07:26;22.20;35.00
10263;DHT22;5177;50.068;8.156;2022-08-20T05:09:51;22.20;38.80
10263;DHT22;5177;50.068;8.156;2022-08-20T05:12:17;22.20;34.80
10263;DHT22;5177;50.068;8.156;2022-08-20T05:14:44;22.20;25.70
10263;DHT22;5177;50.068;8.156;2022-08-20T05:17:09;22.30;21.30
10263;DHT22;5177;50.068;8.156;2022-08-20T05:19:39;22.30;20.00
10263;DHT22;5177;50.068;8.156;2022-08-20T05:22:05;22.30;16.20
10263;DHT22;5177;50.068;8.156;2022-08-20T05:24:31;22.30;7.70
10263;DHT22;5177;50.068;8.156;2022-08-20T05:26:58;22.30;9.70
10263;DHT22;5177;50.068;8.156;2022-08-20T05:29:23;22.30;23.10
10263;DHT22;5177;50.068;8.156;2022-08-20T05:31:49;22.30;53.80
10263;DHT22;5177;50.068;8.156;2022-08-20T05:34:15;22.20;72.50
10263;DHT22;5177;50.068;8.156;2022-08-20T05:36:41;22.10;89.50
10263;DHT22;5177;50.068;8.156;2022-08-20T05:39:07;22.00;99.90
10263;DHT22;5177;50.068;8.156;2022-08-20T05:41:33;21.80;99.90
10263;DHT22;5177;50.068;8.156;2022-08-20T05:43:58;21.70;99.90
10263;DHT22;5177;50.068;8.156;2022-08-20T05:46:27;21.60;99.90
10263;DHT22;5177;50.068;8.156;2022-08-20T05:48:53;21.50;99.90
10263;DHT22;5177;50.068;8.156;2022-08-20T05:51:18;21.50;99.90
10263;DHT22;5177;50.068;8.156;2022-08-20T05:53:44;21.40;99.90
10263;DHT22;5177;50.068;8.156;2022-08-20T05:56:09;21.30;99.90
10263;DHT22;5177;50.068;8.156;2022-08-20T05:58:38;21.30;99.90
10263;DHT22;5177;50.068;8.156;2022-08-20T06:01:03;21.20;99.90
10263;DHT22;5177;50.068;8.156;2022-08-20T06:03:29;21.20;99.90
10263;DHT22;5177;50.068;8.156;2022-08-20T06:06:13;21.10;99.90
10263;DHT22;5177;50.068;8.156;2022-08-20T06:08:38;21.10;99.90
10263;DHT22;5177;50.068;8.156;2022-08-20T06:11:04;21.10;99.90
10263;DHT22;5177;50.068;8.156;2022-08-20T06:13:30;21.10;99.90
10263;DHT22;5177;50.068;8.156;2022-08-20T06:15:56;21.20;99.90
10263;DHT22;5177;50.068;8.156;2022-08-20T06:18:21;21.20;99.90
10263;DHT22;5177;50.068;8.156;2022-08-20T06:20:47;21.30;99.90
10263;DHT22;5177;50.068;8.156;2022-08-20T06:23:13;21.40;99.90
10263;DHT22;5177;50.068;8.156;2022-08-20T06:25:38;21.40;99.90
10263;DHT22;5177;50.068;8.156;2022-08-20T06:28:04;21.40;99.90
10263;DHT22;5177;50.068;8.156;2022-08-20T06:30:30;21.40;99.90
10263;DHT22;5177;50.068;8.156;2022-08-20T06:32:56;21.50;99.90
10263;DHT22;5177;50.068;8.156;2022-08-20T06:35:22;21.50;99.90
10263;DHT22;5177;50.068;8.156;2022-08-20T06:37:48;21.50;99.90
10263;DHT22;5177;50.068;8.156;2022-08-20T06:40:15;21.70;99.90
10263;DHT22;5177;50.068;8.156;2022-08-20T06:42:41;21.70;99.90
10263;DHT22;5177;50.068;8.156;2022-08-20T06:45:11;21.80;99.90
10263;DHT22;5177;50.068;8.156;2022-08-20T06:47:38;21.90;99.90
10263;DHT22;5177;50.068;8.156;2022-08-20T06:50:06;21.90;99.90
10263;DHT22;5177;50.068;8.156;2022-08-20T06:52:31;21.90;99.90
10263;DHT22;5177;50.068;8.156;2022-08-20T06:54:57;21.90;99.90
10263;DHT22;5177;50.068;8.156;2022-08-20T06:57:23;22.00;99.90
10263;DHT22;5177;50.068;8.156;2022-08-20T06:59:49;22.20;99.90
10263;DHT22;5177;50.068;8.156;2022-08-20T07:02:14;22.30;99.90
10263;DHT22;5177;50.068;8.156;2022-08-20T07:04:41;22.40;99.90
10263;DHT22;5177;50.068;8.156;2022-08-20T07:07:14;22.50;99.90
10263;DHT22;5177;50.068;8.156;2022-08-20T07:09:39;22.50;99.90
10263;DHT22;5177;50.068;8.156;2022-08-20T07:12:05;22.60;99.90
10263;DHT22;5177;50.068;8.156;2022-08-20T07:14:30;22.50;99.90
10263;DHT22;5177;50.068;8.156;2022-08-20T07:16:56;22.60;99.90
10263;DHT22;5177;50.068;8.156;2022-08-20T07:19:21;22.60;99.90
10263;DHT22;5177;50.068;8.156;2022-08-20T07:21:47;22.50;99.90
10263;DHT22;5177;50.068;8.156;2022-08-20T07:24:14;22.50;99.90
10263;DHT22;5177;50.068;8.156;2022-08-20T07:26:40;22.60;99.90
10263;DHT22;5177;50.068;8.156;2022-08-20T07:29:06;22.70;99.90
10263;DHT22;5177;50.068;8.156;2022-08-20T07:31:31;22.70;99.90
10263;DHT22;5177;50.068;8.156;2022-08-20T07:34:15;22.80;99.90
10263;DHT22;5177;50.068;8.156;2022-08-20T07:36:41;22.90;99.90
10263;DHT22;5177;50.068;8.156;2022-08-20T07:39:07;23.00;99.90
10263;DHT22;5177;50.068;8.156;2022-08-20T07:41:33;23.10;95.00
10263;DHT22;5177;50.068;8.156;2022-08-20T07:43:58;23.10;67.00
10263;DHT22;5177;50.068;8.156;2022-08-20T07:46:24;23.10;80.20
10263;DHT22;5177;50.068;8.156;2022-08-20T07:48:50;23.00;68.30
10263;DHT22;5177;50.068;8.156;2022-08-20T07:51:19;23.00;85.50
10263;DHT22;5177;50.068;8.156;2022-08-20T07:53:46;23.10;80.40
10263;DHT22;5177;50.068;8.156;2022-08-20T07:56:14;23.30;66.80
10263;DHT22;5177;50.068;8.156;2022-08-20T07:58:41;23.40;32.30
10263;DHT22;5177;50.068;8.156;2022-08-20T08:01:07;23.50;99.90
10263;DHT22;5177;50.068;8.156;2022-08-20T08:03:34;23.80;99.90
10263;DHT22;5177;50.068;8.156;2022-08-20T08:06:01;24.00;99.90
10263;DHT22;5177;50.068;8.156;2022-08-20T08:08:28;24.20;99.90
10263;DHT22;5177;50.068;8.156;2022-08-20T08:10:58;24.40;99.90
10263;DHT22;5177;50.068;8.156;2022-08-20T08:13:24;24.50;99.90
10263;DHT22;5177;50.068;8.156;2022-08-20T08:15:52;24.50;99.90
10263;DHT22;5177;50.068;8.156;2022-08-20T08:18:20;24.50;99.90
10263;DHT22;5177;50.068;8.156;2022-08-20T08:20:48;24.40;99.90
10263;DHT22;5177;50.068;8.156;2022-08-20T08:23:17;24.40;99.90
10263;DHT22;5177;50.068;8.156;2022-08-20T08:25:42;24.50;99.90
10263;DHT22;5177;50.068;8.156;2022-08-20T08:28:08;24.60;99.90
10263;DHT22;5177;50.068;8.156;2022-08-20T08:30:36;24.60;99.90
10263;DHT22;5177;50.068;8.156;2022-08-20T08:33:02;24.70;99.90
10263;DHT22;5177;50.068;8.156;2022-08-20T08:35:46;24.80;99.90
10263;DHT22;5177;50.068;8.156;2022-08-20T08:38:12;24.80;99.90
10263;DHT22;5177;50.068;8.156;2022-08-20T08:40:37;24.80;99.90
10263;DHT22;5177;50.068;8.156;2022-08-20T08:43:03;25.00;99.90
10263;DHT22;5177;50.068;8.156;2022-08-20T08:45:42;24.90;99.90
10263;DHT22;5177;50.068;8.156;2022-08-20T08:48:10;25.00;99.90
10263;DHT22;5177;50.068;8.156;2022-08-20T08:50:38;25.20;99.90
10263;DHT22;5177;50.068;8.156;2022-08-20T08:53:07;25.30;99.90
10263;DHT22;5177;50.068;8.156;2022-08-20T08:55:35;25.50;99.90
10263;DHT22;5177;50.068;8.156;2022-08-20T08:58:00;25.70;99.90
10263;DHT22;5177;50.068;8.156;2022-08-20T09:00:27;25.90;99.90
10263;DHT22;5177;50.068;8.156;2022-08-20T09:02:58;26.00;99.90
10263;DHT22;5177;50.068;8.156;2022-08-20T09:05:29;26.10;99.90
10263;DHT22;5177;50.068;8.156;2022-08-20T09:07:56;26.10;99.90
10263;DHT22;5177;50.068;8.156;2022-08-20T09:10:22;26.20;99.90
10263;DHT22;5177;50.068;8.156;2022-08-20T09:12:48;26.40;99.90
10263;DHT22;5177;50.068;8.156;2022-08-20T09:15:13;26.70;99.90
10263;DHT22;5177;50.068;8.156;2022-08-20T09:17:39;27.10;99.90
10263;DHT22;5177;50.068;8.156;2022-08-20T09:20:05;27.40;99.90
10263;DHT22;5177;50.068;8.156;2022-08-20T09:22:31;27.70;99.90
10263;DHT22;5177;50.068;8.156;2022-08-20T09:24:57;27.90;99.90
10263;DHT22;5177;50.068;8.156;2022-08-20T09:27:24;27.90;99.90
10263;DHT22;5177;50.068;8.156;2022-08-20T09:29:49;28.40;99.90
10263;DHT22;5177;50.068;8.156;2022-08-20T09:32:19;28.60;99.90
10263;DHT22;5177;50.068;8.156;2022-08-20T09:34:46;28.50;99.90
10263;DHT22;5177;50.068;8.156;2022-08-20T09:37:11;28.20;99.90
10263;DHT22;5177;50.068;8.156;2022-08-20T09:39:37;28.10;99.90
10263;DHT22;5177;50.068;8.156;2022-08-20T09:42:10;28.20;99.90
10263;DHT22;5177;50.068;8.156;2022-08-20T09:44:36;28.20;99.90
10263;DHT22;5177;50.068;8.156;2022-08-20T09:47:02;28.40;99.90
10263;DHT22;5177;50.068;8.156;2022-08-20T09:49:28;28.60;99.90
10263;DHT22;5177;50.068;8.156;2022-08-20T09:51:54;28.90;99.90
10263;DHT22;5177;50.068;8.156;2022-08-20T09:54:19;29.10;99.90
10263;DHT22;5177;50.068;8.156;2022-08-20T09:56:45;29.30;99.90
10263;DHT22;5177;50.068;8.156;2022-08-20T09:59:10;29.20;99.90
10263;DHT22;5177;50.068;8.156;2022-08-20T10:01:38;28.80;99.90
10263;DHT22;5177;50.068;8.156;2022-08-20T10:04:04;28.70;99.90
10263;DHT22;5177;50.068;8.156;2022-08-20T10:06:29;28.40;99.90
10263;DHT22;5177;50.068;8.156;2022-08-20T10:08:55;28.00;99.90
10263;DHT22;5177;50.068;8.156;2022-08-20T10:11:20;27.80;99.90
10263;DHT22;5177;50.068;8.156;2022-08-20T10:13:46;27.90;99.90
10263;DHT22;5177;50.068;8.156;2022-08-20T10:16:11;28.40;99.90
10263;DHT22;5177;50.068;8.156;2022-08-20T10:18:37;28.80;99.90
10263;DHT22;5177;50.068;8.156;2022-08-20T10:21:07;29.30;99.90
10263;DHT22;5177;50.068;8.156;2022-08-20T10:23:32;29.20;99.90
10263;DHT22;5177;50.068;8.156;2022-08-20T10:25:58;29.30;99.90
10263;DHT22;5177;50.068;8.156;2022-08-20T10:28:25;29.40;99.90
10263;DHT22;5177;50.068;8.156;2022-08-20T10:30:50;29.80;99.90
10263;DHT22;5177;50.068;8.156;2022-08-20T10:33:16;29.80;99.90
10263;DHT22;5177;50.068;8.156;2022-08-20T10:35:41;29.80;99.90
10263;DHT22;5177;50.068;8.156;2022-08-20T10:38:07;29.80;99.90
10263;DHT22;5177;50.068;8.156;2022-08-20T10:40:32;29.40;99.90
10263;DHT22;5177;50.068;8.156;2022-08-20T10:42:58;29.30;99.90
10263;DHT22;5177;50.068;8.156;2022-08-20T10:45:23;29.00;99.90
10263;DHT22;5177;50.068;8.156;2022-08-20T10:47:49;29.10;99.90
10263;DHT22;5177;50.068;8.156;2022-08-20T10:50:15;29.20;99.90
10263;DHT22;5177;50.068;8.156;2022-08-20T10:52:41;29.20;99.90
10263;DHT22;5177;50.068;8.156;2022-08-20T10:55:07;29.40;99.90
10263;DHT22;5177;50.068;8.156;2022-08-20T10:57:33;29.60;99.90
10263;DHT22;5177;50.068;8.156;2022-08-20T10:59:58;29.90;99.90
10263;DHT22;5177;50.068;8.156;2022-08-20T11:02:25;30.00;99.90
10263;DHT22;5177;50.068;8.156;2022-08-20T11:04:51;29.80;99.90
10263;DHT22;5177;50.068;8.156;2022-08-20T11:07:18;29.90;99.90
10263;DHT22;5177;50.068;8.156;2022-08-20T11:09:44;30.10;99.90
10263;DHT22;5177;50.068;8.156;2022-08-20T11:12:10;30.20;99.90
10263;DHT22;5177;50.068;8.156;2022-08-20T11:14:36;30.40;99.90
10263;DHT22;5177;50.068;8.156;2022-08-20T11:17:02;30.70;99.90
10263;DHT22;5177;50.068;8.156;2022-08-20T11:19:28;30.70;99.90
10263;DHT22;5177;50.068;8.156;2022-08-20T11:21:53;30.60;99.90
10263;DHT22;5177;50.068;8.156;2022-08-20T11:24:19;30.40;99.90
10263;DHT22;5177;50.068;8.156;2022-08-20T11:26:45;30.50;99.90
10263;DHT22;5177;50.068;8.156;2022-08-20T11:29:11;30.40;99.90
10263;DHT22;5177;50.068;8.156;2022-08-20T11:31:37;30.60;99.90
10263;DHT22;5177;50.068;8.156;2022-08-20T11:34:02;30.70;99.90
10263;DHT22;5177;50.068;8.156;2022-08-20T11:36:28;30.70;99.90
10263;DHT22;5177;50.068;8.156;2022-08-20T11:38:53;30.90;99.90
10263;DHT22;5177;50.068;8.156;2022-08-20T11:41:19;31.10;99.90
10263;DHT22;5177;50.068;8.156;2022-08-20T11:43:45;31.20;99.90
10263;DHT22;5177;50.068;8.156;2022-08-20T11:46:11;31.00;99.90
10263;DHT22;5177;50.068;8.156;2022-08-20T11:48:36;31.40;99.90
10263;DHT22;5177;50.068;8.156;2022-08-20T11:51:01;31.60;99.40
10263;DHT22;5177;50.068;8.156;2022-08-20T11:53:28;31.10;99.70
10263;DHT22;5177;50.068;8.156;2022-08-20T11:55:55;30.90;99.90
10263;DHT22;5177;50.068;8.156;2022-08-20T11:58:20;31.20;99.90
10263;DHT22;5177;50.068;8.156;2022-08-20T12:00:46;31.50;99.90
10263;DHT22;5177;50.068;8.156;2022-08-20T12:03:12;31.70;99.90
10263;DHT22;5177;50.068;8.156;2022-08-20T12:05:38;31.80;98.20
10263;DHT22;5177;50.068;8.156;2022-08-20T12:08:04;31.90;98.20
10263;DHT22;5177;50.068;8.156;2022-08-20T12:10:29;32.10;97.10
10263;DHT22;5177;50.068;8.156;2022-08-20T12:12:55;32.30;96.30
10263;DHT22;5177;50.068;8.156;2022-08-20T12:15:21;31.90;95.60
10263;DHT22;5177;50.068;8.156;2022-08-20T12:17:46;31.60;95.70
10263;DHT22;5177;50.068;8.156;2022-08-20T12:20:12;31.90;95.30
10263;DHT22;5177;50.068;8.156;2022-08-20T12:22:38;32.40;95.50
10263;DHT22;5177;50.068;8.156;2022-08-20T12:25:04;32.80;95.00
10263;DHT22;5177;50.068;8.156;2022-08-20T12:27:30;33.10;93.80
10263;DHT22;5177;50.068;8.156;2022-08-20T12:29:57;33.20;92.50
10263;DHT22;5177;50.068;8.156;2022-08-20T12:32:23;33.40;91.70
10263;DHT22;5177;50.068;8.156;2022-08-20T12:34:49;33.40;91.00
10263;DHT22;5177;50.068;8.156;2022-08-20T12:37:16;33.40;88.60
10263;DHT22;5177;50.068;8.156;2022-08-20T12:39:44;33.80;84.40
10263;DHT22;5177;50.068;8.156;2022-08-20T12:42:10;33.90;85.00
10263;DHT22;5177;50.068;8.156;2022-08-20T12:44:36;34.10;82.10
10263;DHT22;5177;50.068;8.156;2022-08-20T12:47:13;33.90;79.50
10263;DHT22;5177;50.068;8.156;2022-08-20T12:49:46;33.80;79.60
10263;DHT22;5177;50.068;8.156;2022-08-20T12:52:12;33.30;80.40
10263;DHT22;5177;50.068;8.156;2022-08-20T12:54:38;33.40;79.40
10263;DHT22;5177;50.068;8.156;2022-08-20T12:57:04;33.60;78.60
10263;DHT22;5177;50.068;8.156;2022-08-20T12:59:30;33.80;76.50
10263;DHT22;5177;50.068;8.156;2022-08-20T13:01:56;33.90;76.40
10263;DHT22;5177;50.068;8.156;2022-08-20T13:04:22;34.10;74.70
10263;DHT22;5177;50.068;8.156;2022-08-20T13:06:47;34.20;73.20
10263;DHT22;5177;50.068;8.156;2022-08-20T13:09:13;34.20;71.50
10263;DHT22;5177;50.068;8.156;2022-08-20T13:11:39;34.30;70.90
10263;DHT22;5177;50.068;8.156;2022-08-20T13:14:04;34.10;68.30
10263;DHT22;5177;50.068;8.156;2022-08-20T13:16:30;34.20;68.10
10263;DHT22;5177;50.068;8.156;2022-08-20T13:18:55;34.30;64.50
10263;DHT22;5177;50.068;8.156;2022-08-20T13:21:21;34.30;58.60
10263;DHT22;5177;50.068;8.156;2022-08-20T13:23:46;34.40;99.90
10263;DHT22;5177;50.068;8.156;2022-08-20T13:26:12;34.40;99.90
10263;DHT22;5177;50.068;8.156;2022-08-20T13:28:37;34.20;99.90
10263;DHT22;5177;50.068;8.156;2022-08-20T13:31:03;34.40;99.90
10263;DHT22;5177;50.068;8.156;2022-08-20T13:33:28;34.50;99.90
10263;DHT22;5177;50.068;8.156;2022-08-20T13:35:54;34.60;99.90
10263;DHT22;5177;50.068;8.156;2022-08-20T13:38:20;34.60;99.90
10263;DHT22;5177;50.068;8.156;2022-08-20T13:40:45;34.80;99.90
10263;DHT22;5177;50.068;8.156;2022-08-20T13:43:11;34.90;99.90
10263;DHT22;5177;50.068;8.156;2022-08-20T13:45:37;34.80;99.90
10263;DHT22;5177;50.068;8.156;2022-08-20T13:48:02;34.80;99.90
10263;DHT22;5177;50.068;8.156;2022-08-20T13:50:28;34.80;99.90
10263;DHT22;5177;50.068;8.156;2022-08-20T13:52:54;34.80;99.90
10263;DHT22;5177;50.068;8.156;2022-08-20T13:55:21;34.90;99.90
10263;DHT22;5177;50.068;8.156;2022-08-20T13:57:47;35.20;99.90
10263;DHT22;5177;50.068;8.156;2022-08-20T14:00:14;35.20;99.90
10263;DHT22;5177;50.068;8.156;2022-08-20T14:02:40;35.40;99.90
10263;DHT22;5177;50.068;8.156;2022-08-20T14:05:06;35.50;99.90
10263;DHT22;5177;50.068;8.156;2022-08-20T14:07:32;35.30;99.90
10263;DHT22;5177;50.068;8.156;2022-08-20T14:09:59;35.40;99.90
10263;DHT22;5177;50.068;8.156;2022-08-20T14:12:25;35.60;99.90
10263;DHT22;5177;50.068;8.156;2022-08-20T14:14:51;35.60;99.90
10263;DHT22;5177;50.068;8.156;2022-08-20T14:17:21;35.80;99.90
10263;DHT22;5177;50.068;8.156;2022-08-20T14:19:49;36.80;99.90
10263;DHT22;5177;50.068;8.156;2022-08-20T14:22:15;37.80;99.90
10263;DHT22;5177;50.068;8.156;2022-08-20T14:24:44;38.70;99.90
10263;DHT22;5177;50.068;8.156;2022-08-20T14:27:09;38.90;99.90
10263;DHT22;5177;50.068;8.156;2022-08-20T14:29:36;39.50;99.90
10263;DHT22;5177;50.068;8.156;2022-08-20T14:32:02;39.30;99.90
10263;DHT22;5177;50.068;8.156;2022-08-20T14:34:33;39.50;99.90
10263;DHT22;5177;50.068;8.156;2022-08-20T14:39:54;40.40;99.90
10263;DHT22;5177;50.068;8.156;2022-08-20T14:42:21;40.30;99.90
10263;DHT22;5177;50.068;8.156;2022-08-20T14:44:48;40.40;99.90
10263;DHT22;5177;50.068;8.156;2022-08-20T14:47:15;40.50;99.90
10263;DHT22;5177;50.068;8.156;2022-08-20T14:49:42;40.30;99.90
10263;DHT22;5177;50.068;8.156;2022-08-20T14:52:08;40.60;99.90
10263;DHT22;5177;50.068;8.156;2022-08-20T14:54:33;40.30;99.90
10263;DHT22;5177;50.068;8.156;2022-08-20T14:56:59;40.40;99.90
10263;DHT22;5177;50.068;8.156;2022-08-20T14:59:25;40.40;99.90
10263;DHT22;5177;50.068;8.156;2022-08-20T15:01:51;40.30;99.90
10263;DHT22;5177;50.068;8.156;2022-08-20T15:04:16;40.60;99.90
10263;DHT22;5177;50.068;8.156;2022-08-20T15:06:46;40.60;99.90
10263;DHT22;5177;50.068;8.156;2022-08-20T15:09:11;40.70;99.90
10263;DHT22;5177;50.068;8.156;2022-08-20T15:11:37;40.40;99.90
10263;DHT22;5177;50.068;8.156;2022-08-20T15:14:04;39.60;99.90
10263;DHT22;5177;50.068;8.156;2022-08-20T15:16:30;39.30;99.90
10263;DHT22;5177;50.068;8.156;2022-08-20T15:18:55;39.20;99.90
10263;DHT22;5177;50.068;8.156;2022-08-20T15:21:21;39.30;99.90
10263;DHT22;5177;50.068;8.156;2022-08-20T15:23:46;39.20;99.90
10263;DHT22;5177;50.068;8.156;2022-08-20T15:26:13;39.10;99.90
10263;DHT22;5177;50.068;8.156;2022-08-20T15:28:38;39.00;99.90
10263;DHT22;5177;50.068;8.156;2022-08-20T15:31:07;38.80;99.90
10263;DHT22;5177;50.068;8.156;2022-08-20T15:33:33;38.80;99.90
10263;DHT22;5177;50.068;8.156;2022-08-20T15:35:58;38.50;99.90
10263;DHT22;5177;50.068;8.156;2022-08-20T15:38:23;38.50;99.90
10263;DHT22;5177;50.068;8.156;2022-08-20T15:40:49;38.30;99.90
10263;DHT22;5177;50.068;8.156;2022-08-20T15:43:14;38.50;99.90
10263;DHT22;5177;50.068;8.156;2022-08-20T15:45:40;38.00;99.90
10263;DHT22;5177;50.068;8.156;2022-08-20T15:48:07;36.40;99.90
10263;DHT22;5177;50.068;8.156;2022-08-20T15:50:49;35.30;99.90
10263;DHT22;5177;50.068;8.156;2022-08-20T15:53:20;34.00;99.90
10263;DHT22;5177;50.068;8.156;2022-08-20T15:55:53;33.00;99.90
10263;DHT22;5177;50.068;8.156;2022-08-20T15:58:26;32.00;99.90
10263;DHT22;5177;50.068;8.156;2022-08-20T16:01:00;31.60;99.90